Terminal Aerodrome Forecast
Issued by NWS Charleston, WV

Current Version | Previous Version | Graphics & Text | Print | Product List | Glossary On
Versions: 1 2 3 4 5 6 7 8 9 10 11 12 13 14 15 16 17 18 19 20 21 22 23 24 25 26 27 28 29 30 31 32
000
FTUS41 KRLX 031521 AAA
TAFHTS
TAF AMD
KHTS 031521Z 0315/0412 12004KT 4SM SHRA BKN007
     FM031600 10003KT P6SM BKN015
     FM031800 16004KT 5SM SHRA VCTS OVC025CB
     FM032000 24004KT P6SM SHRA OVC060
     FM040700 25005KT 5SM BR BKN010=

USA.gov is the U.S. government's official web portal to all federal, state and local government web resources and services.